sensor_id;sensor_type;location;lat;lon;timestamp;pressure;altitude;pressure_sealevel;temperature;humidity
44839;BME280;30576;42.098;24.876;2022-09-28T00:01:50;98645.44;;;18.23;82.98
44839;BME280;30576;42.098;24.876;2022-09-28T00:04:17;98614.78;;;18.01;83.06
44839;BME280;30576;42.098;24.876;2022-09-28T00:06:58;98648.13;;;18.23;82.56
44839;BME280;30576;42.098;24.876;2022-09-28T00:09:24;98612.34;;;17.82;82.50
44839;BME280;30576;42.098;24.876;2022-09-28T00:11:50;98576.25;;;17.62;82.40
44839;BME280;30576;42.098;24.876;2022-09-28T00:14:19;98638.50;;;18.06;82.10
44839;BME280;30576;42.098;24.876;2022-09-28T00:16:45;98619.53;;;17.96;82.45
44839;BME280;30576;42.098;24.876;2022-09-28T00:19:12;98654.78;;;18.16;82.03
44839;BME280;30576;42.098;24.876;2022-09-28T00:22:01;98652.88;;;18.18;81.86
44839;BME280;30576;42.098;24.876;2022-09-28T00:24:27;98630.97;;;17.98;81.53
44839;BME280;30576;42.098;24.876;2022-09-28T00:26:55;98623.06;;;17.97;81.37
44839;BME280;30576;42.098;24.876;2022-09-28T00:29:25;98644.00;;;18.17;81.05
44839;BME280;30576;42.098;24.876;2022-09-28T00:31:59;98596.53;;;17.65;80.83
44839;BME280;30576;42.098;24.876;2022-09-28T00:34:37;98547.38;;;17.54;80.72
44839;BME280;30576;42.098;24.876;2022-09-28T00:37:08;98544.16;;;17.49;80.52
44839;BME280;30576;42.098;24.876;2022-09-28T00:39:34;98631.34;;;18.06;80.27
44839;BME280;30576;42.098;24.876;2022-09-28T00:42:08;98578.25;;;17.73;80.58
44839;BME280;30576;42.098;24.876;2022-09-28T00:44:51;98596.53;;;17.65;80.67
44839;BME280;30576;42.098;24.876;2022-09-28T00:47:50;98586.16;;;17.75;80.69
44839;BME280;30576;42.098;24.876;2022-09-28T00:50:32;98532.81;;;17.31;80.68
44839;BME280;30576;42.098;24.876;2022-09-28T00:53:09;98581.69;;;17.75;80.36
44839;BME280;30576;42.098;24.876;2022-09-28T00:58:07;98552.16;;;17.64;81.07
44839;BME280;30576;42.098;24.876;2022-09-28T01:00:36;98612.59;;;17.94;80.97
44839;BME280;30576;42.098;24.876;2022-09-28T01:03:02;98575.75;;;17.70;81.00
44839;BME280;30576;42.098;24.876;2022-09-28T01:05:30;98619.13;;;17.74;81.28
44839;BME280;30576;42.098;24.876;2022-09-28T01:08:03;98546.03;;;17.33;80.83
44839;BME280;30576;42.098;24.876;2022-09-28T01:10:30;98613.19;;;17.54;80.51
44839;BME280;30576;42.098;24.876;2022-09-28T01:12:56;98588.00;;;17.29;81.85
44839;BME280;30576;42.098;24.876;2022-09-28T01:15:25;98575.16;;;17.22;82.28
44839;BME280;30576;42.098;24.876;2022-09-28T01:18:00;98588.38;;;17.23;83.23
44839;BME280;30576;42.098;24.876;2022-09-28T01:20:53;98613.50;;;17.19;86.34
44839;BME280;30576;42.098;24.876;2022-09-28T01:29:45;98616.78;;;17.53;84.94
44839;BME280;30576;42.098;24.876;2022-09-28T01:38:24;98594.00;;;17.18;84.44
44839;BME280;30576;42.098;24.876;2022-09-28T01:40:51;98586.94;;;17.17;83.66
44839;BME280;30576;42.098;24.876;2022-09-28T01:43:22;98583.44;;;17.31;82.30
44839;BME280;30576;42.098;24.876;2022-09-28T01:45:57;98602.06;;;17.17;82.73
44839;BME280;30576;42.098;24.876;2022-09-28T01:48:30;98616.03;;;17.36;81.91
44839;BME280;30576;42.098;24.876;2022-09-28T01:51:00;98607.03;;;17.23;81.87
44839;BME280;30576;42.098;24.876;2022-09-28T01:53:47;98556.50;;;16.91;81.18
44839;BME280;30576;42.098;24.876;2022-09-28T01:57:02;98587.66;;;17.05;80.87
44839;BME280;30576;42.098;24.876;2022-09-28T01:59:36;98614.47;;;17.32;79.09
44839;BME280;30576;42.098;24.876;2022-09-28T02:02:20;98613.19;;;17.09;80.23
44839;BME280;30576;42.098;24.876;2022-09-28T02:05:00;98619.31;;;16.95;80.92
44839;BME280;30576;42.098;24.876;2022-09-28T02:08:10;98569.97;;;16.58;80.72
44839;BME280;30576;42.098;24.876;2022-09-28T02:10:48;98633.66;;;16.93;80.75
44839;BME280;30576;42.098;24.876;2022-09-28T02:13:23;98623.28;;;16.88;80.23
44839;BME280;30576;42.098;24.876;2022-09-28T02:18:30;98636.91;;;16.82;80.62
44839;BME280;30576;42.098;24.876;2022-09-28T02:21:04;98623.91;;;16.93;80.15
44839;BME280;30576;42.098;24.876;2022-09-28T02:23:31;98629.91;;;16.81;81.30
44839;BME280;30576;42.098;24.876;2022-09-28T02:26:05;98623.47;;;16.69;81.60
44839;BME280;30576;42.098;24.876;2022-09-28T02:28:33;98556.28;;;16.18;81.27
44839;BME280;30576;42.098;24.876;2022-09-28T02:30:59;98585.53;;;16.34;81.56
44839;BME280;30576;42.098;24.876;2022-09-28T02:33:37;98615.47;;;16.69;81.08
44839;BME280;30576;42.098;24.876;2022-09-28T02:36:10;98608.53;;;16.35;82.50
44839;BME280;30576;42.098;24.876;2022-09-28T02:38:36;98591.28;;;16.10;84.16
44839;BME280;30576;42.098;24.876;2022-09-28T02:41:08;98635.59;;;16.27;83.50
44839;BME280;30576;42.098;24.876;2022-09-28T02:44:06;98614.47;;;16.40;82.37
44839;BME280;30576;42.098;24.876;2022-09-28T02:46:56;98633.88;;;16.58;82.34
44839;BME280;30576;42.098;24.876;2022-09-28T02:50:08;98538.06;;;15.78;84.44
44839;BME280;30576;42.098;24.876;2022-09-28T03:01:02;98632.75;;;16.46;88.00
44839;BME280;30576;42.098;24.876;2022-09-28T03:04:06;98592.63;;;16.17;88.23
44839;BME280;30576;42.098;24.876;2022-09-28T03:06:44;98579.53;;;16.30;87.20
44839;BME280;30576;42.098;24.876;2022-09-28T03:09:45;98620.78;;;16.69;86.69
44839;BME280;30576;42.098;24.876;2022-09-28T03:12:15;98591.53;;;16.53;85.67
44839;BME280;30576;42.098;24.876;2022-09-28T03:14:44;98630.69;;;16.67;84.45
44839;BME280;30576;42.098;24.876;2022-09-28T03:17:44;98637.56;;;16.55;84.50
44839;BME280;30576;42.098;24.876;2022-09-28T03:20:53;98568.94;;;15.97;83.60
44839;BME280;30576;42.098;24.876;2022-09-28T03:23:34;98609.81;;;16.11;83.08
44839;BME280;30576;42.098;24.876;2022-09-28T03:26:31;98583.00;;;15.83;82.91
44839;BME280;30576;42.098;24.876;2022-09-28T03:28:57;98577.09;;;15.78;82.28
44839;BME280;30576;42.098;24.876;2022-09-28T03:31:24;98564.34;;;15.67;81.91
44839;BME280;30576;42.098;24.876;2022-09-28T03:33:51;98579.66;;;15.79;82.62
44839;BME280;30576;42.098;24.876;2022-09-28T03:36:17;98564.19;;;15.70;82.56
44839;BME280;30576;42.098;24.876;2022-09-28T03:38:42;98600.59;;;15.85;82.77
44839;BME280;30576;42.098;24.876;2022-09-28T03:41:09;98626.63;;;16.12;82.55
44839;BME280;30576;42.098;24.876;2022-09-28T03:43:38;98663.97;;;16.10;83.98
44839;BME280;30576;42.098;24.876;2022-09-28T03:46:06;98614.81;;;15.84;84.76
44839;BME280;30576;42.098;24.876;2022-09-28T03:48:33;98615.97;;;15.96;84.47
44839;BME280;30576;42.098;24.876;2022-09-28T03:51:01;98656.75;;;16.13;84.82
44839;BME280;30576;42.098;24.876;2022-09-28T03:53:27;98597.81;;;15.71;84.89
44839;BME280;30576;42.098;24.876;2022-09-28T03:55:55;98585.66;;;15.83;84.17
44839;BME280;30576;42.098;24.876;2022-09-28T03:58:21;98655.72;;;15.99;85.83
44839;BME280;30576;42.098;24.876;2022-09-28T04:00:48;98672.03;;;16.09;85.30
44839;BME280;30576;42.098;24.876;2022-09-28T04:03:14;98660.38;;;16.11;85.60
44839;BME280;30576;42.098;24.876;2022-09-28T04:05:50;98624.63;;;15.84;85.30
44839;BME280;30576;42.098;24.876;2022-09-28T04:08:16;98621.72;;;15.88;84.64
44839;BME280;30576;42.098;24.876;2022-09-28T04:10:42;98620.56;;;15.92;84.10
44839;BME280;30576;42.098;24.876;2022-09-28T04:13:07;98643.94;;;16.03;83.93
44839;BME280;30576;42.098;24.876;2022-09-28T04:15:32;98661.13;;;16.14;83.01
44839;BME280;30576;42.098;24.876;2022-09-28T04:17:58;98637.41;;;15.93;82.89
44839;BME280;30576;42.098;24.876;2022-09-28T04:20:23;98641.59;;;15.81;83.39
44839;BME280;30576;42.098;24.876;2022-09-28T04:22:49;98637.66;;;15.88;83.20
44839;BME280;30576;42.098;24.876;2022-09-28T04:25:14;98636.09;;;15.84;83.05
44839;BME280;30576;42.098;24.876;2022-09-28T04:27:40;98646.75;;;15.84;82.63
44839;BME280;30576;42.098;24.876;2022-09-28T04:30:24;98645.66;;;15.53;84.34
44839;BME280;30576;42.098;24.876;2022-09-28T04:32:49;98651.81;;;15.71;83.85
44839;BME280;30576;42.098;24.876;2022-09-28T04:35:15;98661.16;;;15.80;84.36
44839;BME280;30576;42.098;24.876;2022-09-28T04:37:41;98662.97;;;15.96;83.75
44839;BME280;30576;42.098;24.876;2022-09-28T04:40:06;98682.75;;;16.07;83.30
44839;BME280;30576;42.098;24.876;2022-09-28T04:42:32;98651.22;;;15.84;83.20
44839;BME280;30576;42.098;24.876;2022-09-28T04:44:58;98636.00;;;15.52;85.35
44839;BME280;30576;42.098;24.876;2022-09-28T04:47:25;98703.75;;;15.96;85.02
44839;BME280;30576;42.098;24.876;2022-09-28T04:49:51;98677.22;;;15.95;83.94
44839;BME280;30576;42.098;24.876;2022-09-28T04:52:17;98712.97;;;15.71;84.02
44839;BME280;30576;42.098;24.876;2022-09-28T04:54:42;98679.34;;;15.18;85.38
44839;BME280;30576;42.098;24.876;2022-09-28T04:57:07;98710.59;;;15.30;85.02
44839;BME280;30576;42.098;24.876;2022-09-28T04:59:33;98721.06;;;15.33;85.55
44839;BME280;30576;42.098;24.876;2022-09-28T05:01:58;98695.03;;;15.22;85.59
44839;BME280;30576;42.098;24.876;2022-09-28T05:04:24;98680.59;;;15.28;84.85
44839;BME280;30576;42.098;24.876;2022-09-28T05:06:49;98727.81;;;15.58;84.23
44839;BME280;30576;42.098;24.876;2022-09-28T05:09:15;98727.59;;;15.63;83.99
44839;BME280;30576;42.098;24.876;2022-09-28T05:11:42;98732.13;;;15.61;84.49
44839;BME280;30576;42.098;24.876;2022-09-28T05:14:31;98745.13;;;15.84;84.23
44839;BME280;30576;42.098;24.876;2022-09-28T05:17:08;98733.47;;;15.87;84.70
44839;BME280;30576;42.098;24.876;2022-09-28T05:19:33;98731.44;;;15.92;85.48
44839;BME280;30576;42.098;24.876;2022-09-28T05:21:59;98700.84;;;15.66;87.09
44839;BME280;30576;42.098;24.876;2022-09-28T05:24:29;98708.81;;;16.01;87.56
44839;BME280;30576;42.098;24.876;2022-09-28T05:26:54;98717.94;;;16.13;88.30
44839;BME280;30576;42.098;24.876;2022-09-28T05:29:20;98718.06;;;16.27;88.65
44839;BME280;30576;42.098;24.876;2022-09-28T05:31:45;98709.84;;;16.32;88.07
44839;BME280;30576;42.098;24.876;2022-09-28T05:34:11;98726.09;;;16.75;87.55
44839;BME280;30576;42.098;24.876;2022-09-28T05:36:36;98686.00;;;16.78;84.91
44839;BME280;30576;42.098;24.876;2022-09-28T05:39:04;98670.88;;;16.94;85.01
44839;BME280;30576;42.098;24.876;2022-09-28T05:41:29;98736.81;;;17.37;83.46
44839;BME280;30576;42.098;24.876;2022-09-28T05:43:55;98730.06;;;17.62;82.91
44839;BME280;30576;42.098;24.876;2022-09-28T05:46:21;98739.75;;;17.93;80.97
44839;BME280;30576;42.098;24.876;2022-09-28T05:48:47;98697.97;;;17.78;80.93
44839;BME280;30576;42.098;24.876;2022-09-28T05:51:13;98732.06;;;17.72;82.04
44839;BME280;30576;42.098;24.876;2022-09-28T05:53:39;98687.22;;;17.34;83.18
44839;BME280;30576;42.098;24.876;2022-09-28T05:56:05;98717.66;;;17.91;82.11
44839;BME280;30576;42.098;24.876;2022-09-28T05:58:31;98716.06;;;18.17;79.89
44839;BME280;30576;42.098;24.876;2022-09-28T06:00:57;98735.50;;;18.48;78.85
44839;BME280;30576;42.098;24.876;2022-09-28T06:03:23;98741.03;;;18.74;77.61
44839;BME280;30576;42.098;24.876;2022-09-28T06:05:49;98681.66;;;18.83;76.57
44839;BME280;30576;42.098;24.876;2022-09-28T06:08:14;98713.56;;;18.86;75.61
44839;BME280;30576;42.098;24.876;2022-09-28T06:10:40;98718.34;;;19.08;75.40
44839;BME280;30576;42.098;24.876;2022-09-28T06:13:06;98733.91;;;19.56;74.16
44839;BME280;30576;42.098;24.876;2022-09-28T06:15:33;98731.03;;;19.72;72.88
44839;BME280;30576;42.098;24.876;2022-09-28T06:18:04;98754.00;;;19.89;72.72
44839;BME280;30576;42.098;24.876;2022-09-28T06:20:33;98721.41;;;20.10;72.09
44839;BME280;30576;42.098;24.876;2022-09-28T06:22:59;98749.13;;;20.34;71.95
44839;BME280;30576;42.098;24.876;2022-09-28T06:25:25;98751.78;;;20.47;71.98
44839;BME280;30576;42.098;24.876;2022-09-28T06:28:16;98709.00;;;20.58;71.40
44839;BME280;30576;42.098;24.876;2022-09-28T06:30:42;98760.84;;;21.20;70.74
44839;BME280;30576;42.098;24.876;2022-09-28T06:33:12;98779.44;;;21.35;70.87
44839;BME280;30576;42.098;24.876;2022-09-28T06:35:38;98737.78;;;20.93;69.31
44839;BME280;30576;42.098;24.876;2022-09-28T06:38:04;98722.75;;;21.04;68.61
44839;BME280;30576;42.098;24.876;2022-09-28T06:40:31;98742.47;;;21.27;68.02
44839;BME280;30576;42.098;24.876;2022-09-28T06:45:27;98705.13;;;20.75;66.16
44839;BME280;30576;42.098;24.876;2022-09-28T06:47:55;98711.59;;;20.73;65.39
44839;BME280;30576;42.098;24.876;2022-09-28T06:50:25;98752.75;;;20.59;66.75
44839;BME280;30576;42.098;24.876;2022-09-28T06:52:53;98734.31;;;20.42;67.62
44839;BME280;30576;42.098;24.876;2022-09-28T06:55:19;98739.06;;;21.01;66.01
44839;BME280;30576;42.098;24.876;2022-09-28T06:57:45;98779.00;;;21.41;63.54
44839;BME280;30576;42.098;24.876;2022-09-28T07:00:11;98753.34;;;21.50;65.15
44839;BME280;30576;42.098;24.876;2022-09-28T07:02:36;98744.53;;;21.72;63.39
44839;BME280;30576;42.098;24.876;2022-09-28T07:05:02;98711.34;;;21.61;63.16
44839;BME280;30576;42.098;24.876;2022-09-28T07:07:27;98748.84;;;21.86;61.04
44839;BME280;30576;42.098;24.876;2022-09-28T07:09:54;98712.31;;;21.72;60.21
44839;BME280;30576;42.098;24.876;2022-09-28T07:12:20;98737.88;;;22.35;59.96
44839;BME280;30576;42.098;24.876;2022-09-28T07:14:47;98712.09;;;22.33;59.28
44839;BME280;30576;42.098;24.876;2022-09-28T07:17:14;98726.13;;;22.82;59.49
44839;BME280;30576;42.098;24.876;2022-09-28T07:19:40;98722.16;;;23.20;59.33
44839;BME280;30576;42.098;24.876;2022-09-28T07:22:05;98723.03;;;23.41;57.21
44839;BME280;30576;42.098;24.876;2022-09-28T07:24:31;98709.19;;;23.25;55.77
44839;BME280;30576;42.098;24.876;2022-09-28T07:26:56;98719.50;;;23.09;55.84
44839;BME280;30576;42.098;24.876;2022-09-28T07:31:47;98754.34;;;24.07;54.02
44839;BME280;30576;42.098;24.876;2022-09-28T07:34:12;98707.75;;;23.95;54.37
44839;BME280;30576;42.098;24.876;2022-09-28T07:36:38;98730.22;;;23.85;53.98
44839;BME280;30576;42.098;24.876;2022-09-28T07:39:03;98745.97;;;24.31;54.27
44839;BME280;30576;42.098;24.876;2022-09-28T07:41:29;98745.88;;;24.43;53.44
44839;BME280;30576;42.098;24.876;2022-09-28T07:44:01;98701.50;;;24.47;51.93
44839;BME280;30576;42.098;24.876;2022-09-28T07:46:34;98733.03;;;24.56;52.64
44839;BME280;30576;42.098;24.876;2022-09-28T07:48:59;98705.47;;;24.83;52.92
44839;BME280;30576;42.098;24.876;2022-09-28T07:51:25;98679.81;;;24.48;53.73
44839;BME280;30576;42.098;24.876;2022-09-28T07:53:51;98704.06;;;24.48;52.08
44839;BME280;30576;42.098;24.876;2022-09-28T07:56:18;98722.47;;;25.15;51.18
44839;BME280;30576;42.098;24.876;2022-09-28T07:58:45;98746.78;;;25.64;49.98
44839;BME280;30576;42.098;24.876;2022-09-28T08:01:12;98730.16;;;25.29;53.33
44839;BME280;30576;42.098;24.876;2022-09-28T08:03:41;98695.38;;;25.46;51.62
44839;BME280;30576;42.098;24.876;2022-09-28T08:06:13;98732.69;;;26.19;48.84
44839;BME280;30576;42.098;24.876;2022-09-28T08:08:39;98730.84;;;25.90;49.39
44839;BME280;30576;42.098;24.876;2022-09-28T08:11:14;98716.22;;;26.12;48.61
44839;BME280;30576;42.098;24.876;2022-09-28T08:13:41;98681.53;;;25.98;48.88
44839;BME280;30576;42.098;24.876;2022-09-28T08:16:06;98692.78;;;26.40;47.35
44839;BME280;30576;42.098;24.876;2022-09-28T08:18:33;98701.78;;;26.31;46.75
44839;BME280;30576;42.098;24.876;2022-09-28T08:21:03;98712.16;;;26.36;47.82
44839;BME280;30576;42.098;24.876;2022-09-28T08:23:48;98711.25;;;25.98;47.75
44839;BME280;30576;42.098;24.876;2022-09-28T08:26:14;98722.44;;;26.22;47.48
44839;BME280;30576;42.098;24.876;2022-09-28T08:28:40;98686.06;;;26.17;47.92
44839;BME280;30576;42.098;24.876;2022-09-28T08:31:07;98696.59;;;26.10;48.14
44839;BME280;30576;42.098;24.876;2022-09-28T08:33:33;98709.22;;;26.19;46.47
44839;BME280;30576;42.098;24.876;2022-09-28T08:36:00;98702.03;;;25.90;48.66
44839;BME280;30576;42.098;24.876;2022-09-28T08:38:27;98719.75;;;25.93;47.69
44839;BME280;30576;42.098;24.876;2022-09-28T08:44:10;98719.75;;;25.93;48.69
44839;BME280;30576;42.098;24.876;2022-09-28T08:46:41;98691.34;;;25.79;47.17
44839;BME280;30576;42.098;24.876;2022-09-28T08:51:50;98703.16;;;25.98;48.78
44839;BME280;30576;42.098;24.876;2022-09-28T08:56:51;98716.50;;;25.99;47.79
44839;BME280;30576;42.098;24.876;2022-09-28T08:59:24;98699.75;;;25.86;46.37
44839;BME280;30576;42.098;24.876;2022-09-28T09:02:02;98702.72;;;25.92;46.47
44839;BME280;30576;42.098;24.876;2022-09-28T09:04:30;98708.56;;;25.78;47.18
44839;BME280;30576;42.098;24.876;2022-09-28T09:07:16;98717.94;;;25.94;45.63
44839;BME280;30576;42.098;24.876;2022-09-28T09:21:33;98713.81;;;25.70;44.26
44839;BME280;30576;42.098;24.876;2022-09-28T09:24:32;98717.81;;;25.76;43.16
44839;BME280;30576;42.098;24.876;2022-09-28T09:33:00;98725.56;;;25.20;45.67
44839;BME280;30576;42.098;24.876;2022-09-28T09:47:01;98648.63;;;25.26;41.57
44839;BME280;30576;42.098;24.876;2022-09-28T09:49:37;98679.88;;;25.48;41.75
44839;BME280;30576;42.098;24.876;2022-09-28T09:52:17;98684.97;;;25.80;42.07
44839;BME280;30576;42.098;24.876;2022-09-28T10:00:43;98686.75;;;26.19;41.36
44839;BME280;30576;42.098;24.876;2022-09-28T10:03:24;98708.59;;;26.35;41.46
44839;BME280;30576;42.098;24.876;2022-09-28T10:05:57;98691.34;;;25.99;42.93
44839;BME280;30576;42.098;24.876;2022-09-28T10:08:33;98687.22;;;26.04;41.69
44839;BME280;30576;42.098;24.876;2022-09-28T10:11:11;98656.25;;;25.79;42.31
44839;BME280;30576;42.098;24.876;2022-09-28T10:19:53;98663.06;;;25.83;42.81
44839;BME280;30576;42.098;24.876;2022-09-28T10:22:23;98698.84;;;26.15;43.76
44839;BME280;30576;42.098;24.876;2022-09-28T10:24:50;98666.59;;;26.03;43.81
44839;BME280;30576;42.098;24.876;2022-09-28T10:27:26;98630.63;;;25.93;43.98
44839;BME280;30576;42.098;24.876;2022-09-28T10:32:44;98689.22;;;26.40;42.56
44839;BME280;30576;42.098;24.876;2022-09-28T10:35:23;98694.31;;;26.43;42.91
44839;BME280;30576;42.098;24.876;2022-09-28T10:38:06;98670.28;;;26.40;41.62
44839;BME280;30576;42.098;24.876;2022-09-28T10:40:44;98641.94;;;26.16;40.78
44839;BME280;30576;42.098;24.876;2022-09-28T10:46:33;98673.56;;;26.99;40.84
44839;BME280;30576;42.098;24.876;2022-09-28T10:49:14;98651.53;;;26.94;40.82
44839;BME280;30576;42.098;24.876;2022-09-28T10:51:42;98672.34;;;27.11;40.80
44839;BME280;30576;42.098;24.876;2022-09-28T11:00:44;98618.84;;;26.59;40.45
44839;BME280;30576;42.098;24.876;2022-09-28T11:03:23;98633.75;;;26.91;41.10
44839;BME280;30576;42.098;24.876;2022-09-28T11:06:21;98648.75;;;27.04;41.25
44839;BME280;30576;42.098;24.876;2022-09-28T11:12:16;98629.97;;;27.20;39.16
44839;BME280;30576;42.098;24.876;2022-09-28T11:24:41;98596.25;;;26.96;38.52
44839;BME280;30576;42.098;24.876;2022-09-28T11:27:18;98586.66;;;27.20;38.09
44839;BME280;30576;42.098;24.876;2022-09-28T11:29:52;98578.94;;;27.07;37.14
44839;BME280;30576;42.098;24.876;2022-09-28T11:32:22;98579.72;;;27.18;35.38
44839;BME280;30576;42.098;24.876;2022-09-28T11:34:49;98572.63;;;26.80;36.18
44839;BME280;30576;42.098;24.876;2022-09-28T11:37:29;98593.34;;;26.90;36.34
44839;BME280;30576;42.098;24.876;2022-09-28T11:48:47;98562.47;;;26.83;36.44
44839;BME280;30576;42.098;24.876;2022-09-28T11:51:22;98558.47;;;26.87;36.47
44839;BME280;30576;42.098;24.876;2022-09-28T11:53:57;98534.59;;;26.82;35.64
44839;BME280;30576;42.098;24.876;2022-09-28T11:56:40;98589.50;;;27.19;37.66
44839;BME280;30576;42.098;24.876;2022-09-28T11:59:44;98583.31;;;27.44;35.90
44839;BME280;30576;42.098;24.876;2022-09-28T12:02:30;98584.88;;;27.29;36.62
44839;BME280;30576;42.098;24.876;2022-09-28T12:05:29;98568.78;;;27.45;36.41
44839;BME280;30576;42.098;24.876;2022-09-28T12:08:29;98568.41;;;27.66;36.23
44839;BME280;30576;42.098;24.876;2022-09-28T12:24:44;98570.41;;;27.91;35.94
44839;BME280;30576;42.098;24.876;2022-09-28T12:30:16;98539.69;;;27.74;35.15
44839;BME280;30576;42.098;24.876;2022-09-28T12:33:06;98563.09;;;27.83;35.45
44839;BME280;30576;42.098;24.876;2022-09-28T12:42:06;98538.03;;;27.81;35.77
44839;BME280;30576;42.098;24.876;2022-09-28T12:48:41;98550.19;;;28.03;36.87
44839;BME280;30576;42.098;24.876;2022-09-28T12:54:41;98518.63;;;27.59;36.21
44839;BME280;30576;42.098;24.876;2022-09-28T13:00:12;98539.84;;;27.72;35.88
44839;BME280;30576;42.098;24.876;2022-09-28T13:03:11;98551.03;;;28.03;35.55
44839;BME280;30576;42.098;24.876;2022-09-28T13:09:23;98535.00;;;27.84;35.75
44839;BME280;30576;42.098;24.876;2022-09-28T13:17:01;98542.28;;;28.18;35.42
44839;BME280;30576;42.098;24.876;2022-09-28T13:22:35;98499.72;;;27.76;34.48
44839;BME280;30576;42.098;24.876;2022-09-28T13:25:15;98518.09;;;27.90;34.55
44839;BME280;30576;42.098;24.876;2022-09-28T13:28:18;98504.31;;;27.75;35.01
44839;BME280;30576;42.098;24.876;2022-09-28T13:30:37;98502.31;;;27.85;34.22
44839;BME280;30576;42.098;24.876;2022-09-28T13:33:06;98523.25;;;28.01;34.77
44839;BME280;30576;42.098;24.876;2022-09-28T13:35:41;98515.91;;;27.94;34.23
44839;BME280;30576;42.098;24.876;2022-09-28T13:43:38;98507.34;;;27.80;33.35
44839;BME280;30576;42.098;24.876;2022-09-28T13:46:26;98505.34;;;27.82;33.67
44839;BME280;30576;42.098;24.876;2022-09-28T13:51:35;98513.88;;;28.30;31.28
44839;BME280;30576;42.098;24.876;2022-09-28T13:57:21;98522.63;;;28.16;32.48
44839;BME280;30576;42.098;24.876;2022-09-28T14:02:39;98522.03;;;28.47;31.61
44839;BME280;30576;42.098;24.876;2022-09-28T14:08:21;98504.19;;;28.36;31.19
44839;BME280;30576;42.098;24.876;2022-09-28T14:11:21;98533.84;;;28.29;31.07
44839;BME280;30576;42.098;24.876;2022-09-28T14:16:34;98509.63;;;28.36;31.48
44839;BME280;30576;42.098;24.876;2022-09-28T14:29:31;98491.69;;;28.35;29.96
44839;BME280;30576;42.098;24.876;2022-09-28T14:32:04;98498.78;;;28.28;30.21
44839;BME280;30576;42.098;24.876;2022-09-28T14:35:00;98512.25;;;28.62;30.04
44839;BME280;30576;42.098;24.876;2022-09-28T14:37:37;98512.88;;;28.48;30.46
44839;BME280;30576;42.098;24.876;2022-09-28T14:40:25;98502.88;;;28.40;30.58
44839;BME280;30576;42.098;24.876;2022-09-28T14:53:53;98517.88;;;28.69;30.56
44839;BME280;30576;42.098;24.876;2022-09-28T14:56:20;98517.59;;;28.37;30.90
44839;BME280;30576;42.098;24.876;2022-09-28T14:58:52;98532.19;;;28.45;31.34
44839;BME280;30576;42.098;24.876;2022-09-28T15:01:21;98513.53;;;28.42;31.28
44839;BME280;30576;42.098;24.876;2022-09-28T15:03:52;98530.84;;;28.49;31.91
44839;BME280;30576;42.098;24.876;2022-09-28T15:06:24;98534.19;;;28.34;31.27
44839;BME280;30576;42.098;24.876;2022-09-28T15:08:51;98542.88;;;28.38;32.08
44839;BME280;30576;42.098;24.876;2022-09-28T15:11:22;98529.88;;;28.07;32.57
44839;BME280;30576;42.098;24.876;2022-09-28T15:13:49;98522.81;;;28.22;32.55
44839;BME280;30576;42.098;24.876;2022-09-28T15:16:22;98523.28;;;28.10;32.80
44839;BME280;30576;42.098;24.876;2022-09-28T15:21:37;98538.72;;;28.17;33.65
44839;BME280;30576;42.098;24.876;2022-09-28T15:24:58;98541.53;;;27.99;34.49
44839;BME280;30576;42.098;24.876;2022-09-28T15:27:25;98519.41;;;27.86;34.34
44839;BME280;30576;42.098;24.876;2022-09-28T15:29:59;98482.00;;;27.47;34.98
44839;BME280;30576;42.098;24.876;2022-09-28T15:32:26;98519.78;;;27.57;35.32
44839;BME280;30576;42.098;24.876;2022-09-28T15:34:53;98541.75;;;27.54;35.80
44839;BME280;30576;42.098;24.876;2022-09-28T15:37:23;98504.44;;;27.21;36.51
44839;BME280;30576;42.098;24.876;2022-09-28T15:39:52;98525.34;;;27.11;37.42
44839;BME280;30576;42.098;24.876;2022-09-28T15:42:18;98540.06;;;26.90;39.03
44839;BME280;30576;42.098;24.876;2022-09-28T15:47:27;98547.63;;;26.69;40.58
44839;BME280;30576;42.098;24.876;2022-09-28T15:50:03;98549.53;;;26.58;41.44
44839;BME280;30576;42.098;24.876;2022-09-28T15:52:39;98536.84;;;26.23;41.81
44839;BME280;30576;42.098;24.876;2022-09-28T15:55:25;98571.09;;;26.22;42.07
44839;BME280;30576;42.098;24.876;2022-09-28T15:58:06;98566.94;;;26.00;42.24
44839;BME280;30576;42.098;24.876;2022-09-28T16:00:33;98548.78;;;25.83;42.79
44839;BME280;30576;42.098;24.876;2022-09-28T16:05:36;98576.78;;;25.82;43.17
44839;BME280;30576;42.098;24.876;2022-09-28T16:08:04;98552.31;;;25.26;44.25
44839;BME280;30576;42.098;24.876;2022-09-28T16:10:31;98583.03;;;25.35;42.45
44839;BME280;30576;42.098;24.876;2022-09-28T16:13:15;98570.38;;;25.35;41.92
44839;BME280;30576;42.098;24.876;2022-09-28T16:15:43;98538.84;;;24.97;41.92
44839;BME280;30576;42.098;24.876;2022-09-28T16:20:38;98558.72;;;24.96;43.05
44839;BME280;30576;42.098;24.876;2022-09-28T16:36:45;98573.03;;;24.17;46.35
44839;BME280;30576;42.098;24.876;2022-09-28T16:39:12;98551.34;;;23.77;46.97
44839;BME280;30576;42.098;24.876;2022-09-28T16:41:40;98563.78;;;23.78;47.41
44839;BME280;30576;42.098;24.876;2022-09-28T16:44:21;98584.56;;;23.67;47.79
44839;BME280;30576;42.098;24.876;2022-09-28T16:46:47;98562.00;;;23.37;48.40
44839;BME280;30576;42.098;24.876;2022-09-28T16:49:14;98555.38;;;23.41;47.83
44839;BME280;30576;42.098;24.876;2022-09-28T16:51:53;98568.69;;;23.42;46.86
44839;BME280;30576;42.098;24.876;2022-09-28T16:54:21;98584.31;;;23.49;46.77
44839;BME280;30576;42.098;24.876;2022-09-28T16:57:07;98572.19;;;22.68;49.85
44839;BME280;30576;42.098;24.876;2022-09-28T16:59:34;98582.75;;;22.49;49.62
44839;BME280;30576;42.098;24.876;2022-09-28T17:02:14;98559.22;;;22.18;49.50
44839;BME280;30576;42.098;24.876;2022-09-28T17:04:40;98573.84;;;22.48;48.87